createdAt,value
2023-06-29T00:00:02.298Z,84.42
2023-06-29T00:02:33.190Z,84.61
2023-06-29T00:05:00.350Z,84.34
2023-06-29T00:07:28.117Z,84.02
2023-06-29T00:09:55.981Z,84.20
2023-06-29T00:12:23.562Z,83.99
2023-06-29T00:14:50.913Z,84.08
2023-06-29T00:17:19.713Z,84.78
2023-06-29T00:19:48.956Z,84.59
2023-06-29T00:22:16.896Z,84.91
2023-06-29T00:24:44.734Z,85.54
2023-06-29T00:27:15.066Z,85.13
2023-06-29T00:29:42.995Z,83.88
2023-06-29T00:32:10.795Z,83.06
2023-06-29T00:34:38.300Z,83.07
2023-06-29T00:37:05.805Z,83.63
2023-06-29T00:39:34.645Z,84.37
2023-06-29T00:42:02.827Z,84.50
2023-06-29T00:44:30.120Z,84.64
2023-06-29T00:46:57.328Z,84.81
2023-06-29T00:49:24.694Z,85.02
2023-06-29T00:51:52.644Z,84.86
2023-06-29T00:54:21.568Z,83.98
2023-06-29T00:56:49.680Z,83.62
2023-06-29T00:59:16.930Z,83.12
2023-06-29T01:01:44.423Z,82.71
2023-06-29T01:04:27.161Z,82.47
2023-06-29T01:07:25.580Z,81.29
2023-06-29T01:09:53.349Z,81.91
2023-06-29T01:12:21.221Z,82.46
2023-06-29T01:14:49.076Z,82.50
2023-06-29T01:17:17.205Z,82.58
2023-06-29T01:19:46.727Z,82.62
2023-06-29T01:22:30.115Z,82.29
2023-06-29T01:24:58.447Z,82.48
2023-06-29T01:27:26.086Z,82.36
2023-06-29T01:29:56.697Z,82.09
2023-06-29T01:32:27.462Z,82.33
2023-06-29T01:34:55.203Z,81.82
2023-06-29T01:37:28.077Z,81.63
2023-06-29T01:40:01.636Z,81.32
2023-06-29T01:42:32.728Z,81.28
2023-06-29T01:45:01.687Z,81.38
2023-06-29T01:47:29.167Z,81.62
2023-06-29T01:49:56.707Z,81.58
2023-06-29T01:52:24.338Z,81.59
2023-06-29T01:54:51.896Z,81.49
2023-06-29T01:57:20.408Z,81.53
2023-06-29T01:59:48.039Z,81.61
2023-06-29T02:02:15.326Z,82.13
2023-06-29T02:04:42.952Z,82.65
2023-06-29T02:07:11.574Z,82.47
2023-06-29T02:09:38.748Z,82.79
2023-06-29T02:12:06.592Z,83.89
2023-06-29T02:14:33.846Z,84.09
2023-06-29T02:17:01.615Z,83.78
2023-06-29T02:19:29.167Z,83.57
2023-06-29T02:21:57.367Z,83.80
2023-06-29T02:24:24.779Z,83.59
2023-06-29T02:26:54.159Z,83.57
2023-06-29T02:29:21.984Z,83.76
2023-06-29T02:31:49.679Z,84.24
2023-06-29T02:34:17.046Z,84.62
2023-06-29T02:36:44.559Z,84.12
2023-06-29T02:39:15.915Z,83.92
2023-06-29T02:41:43.694Z,83.64
2023-06-29T02:44:10.759Z,83.38
2023-06-29T02:46:37.885Z,83.26
2023-06-29T02:49:05.045Z,83.01
2023-06-29T02:51:33.229Z,83.25
2023-06-29T02:54:05.124Z,83.47
2023-06-29T02:56:32.366Z,82.83
2023-06-29T02:58:59.510Z,82.54
2023-06-29T03:01:28.898Z,82.29
2023-06-29T03:03:57.536Z,82.15
2023-06-29T03:06:25.015Z,82.21
2023-06-29T03:08:53.980Z,81.96
2023-06-29T03:11:21.524Z,82.14
2023-06-29T03:13:52.230Z,81.93
2023-06-29T03:16:19.665Z,81.72
2023-06-29T03:18:46.850Z,81.31
2023-06-29T03:21:18.668Z,81.04
2023-06-29T03:23:46.592Z,81.07
2023-06-29T03:26:14.455Z,80.88
2023-06-29T03:28:42.021Z,80.88
2023-06-29T03:31:09.318Z,81.58
2023-06-29T03:33:37.082Z,81.27
2023-06-29T03:36:05.983Z,80.89
2023-06-29T03:38:34.000Z,81.18
2023-06-29T03:41:01.356Z,81.27
2023-06-29T03:43:28.699Z,81.60
2023-06-29T03:45:57.940Z,81.55
2023-06-29T03:48:28.751Z,81.10
2023-06-29T03:50:58.059Z,81.17
2023-06-29T03:53:25.429Z,81.38
2023-06-29T03:55:53.017Z,81.68
2023-06-29T03:58:20.655Z,81.56
2023-06-29T04:00:47.953Z,82.41
2023-06-29T04:03:15.184Z,81.98
2023-06-29T04:05:43.652Z,81.57
2023-06-29T04:08:11.418Z,81.48
2023-06-29T04:10:39.210Z,81.55
2023-06-29T04:13:06.660Z,81.68
2023-06-29T04:15:36.462Z,81.53
2023-06-29T04:18:04.315Z,82.16
2023-06-29T04:20:34.095Z,82.34
2023-06-29T04:23:01.694Z,82.42
2023-06-29T04:25:31.840Z,82.99
2023-06-29T04:27:59.015Z,82.67
2023-06-29T04:30:26.148Z,82.72
2023-06-29T04:32:53.745Z,83.14
2023-06-29T04:35:21.049Z,83.76
2023-06-29T04:37:48.419Z,83.79
2023-06-29T04:40:15.991Z,83.21
2023-06-29T04:42:46.973Z,82.96
2023-06-29T04:45:20.439Z,82.81
2023-06-29T04:47:50.775Z,82.86
2023-06-29T04:50:26.482Z,83.25
2023-06-29T04:52:54.888Z,83.32
2023-06-29T04:55:25.788Z,82.52
2023-06-29T04:57:53.331Z,82.62
2023-06-29T05:00:21.275Z,82.70
2023-06-29T05:02:48.725Z,82.83
2023-06-29T05:05:16.095Z,82.52
2023-06-29T05:07:43.944Z,82.35
2023-06-29T05:10:11.415Z,82.67
2023-06-29T05:12:38.730Z,82.73
2023-06-29T05:15:06.932Z,82.74
2023-06-29T05:17:35.635Z,82.75
2023-06-29T05:20:06.591Z,82.38
2023-06-29T05:22:34.032Z,82.35
2023-06-29T05:25:01.651Z,82.04
2023-06-29T05:27:28.976Z,82.08
2023-06-29T05:29:56.454Z,82.08
2023-06-29T05:32:23.670Z,82.31
2023-06-29T05:34:50.834Z,82.07
2023-06-29T05:37:18.221Z,81.81
2023-06-29T05:39:45.581Z,81.88
2023-06-29T05:42:12.766Z,81.86
2023-06-29T05:44:40.065Z,81.89
2023-06-29T05:47:10.064Z,81.70
2023-06-29T05:49:38.483Z,82.10
2023-06-29T05:52:06.241Z,82.02
2023-06-29T05:54:33.453Z,82.54
2023-06-29T05:57:00.631Z,82.40
2023-06-29T05:59:27.944Z,81.52
2023-06-29T06:01:55.453Z,81.15
2023-06-29T06:04:22.999Z,81.47
2023-06-29T06:06:50.777Z,81.54
2023-06-29T06:09:18.059Z,81.38
2023-06-29T06:11:45.360Z,81.27
2023-06-29T06:14:12.689Z,80.51
2023-06-29T06:16:39.950Z,80.38
2023-06-29T06:19:07.370Z,80.43
2023-06-29T06:21:34.613Z,80.67
2023-06-29T06:24:01.782Z,80.32
2023-06-29T06:26:30.503Z,80.40
2023-06-29T06:28:57.766Z,80.14
2023-06-29T06:31:34.210Z,79.80
2023-06-29T06:34:02.467Z,79.79
2023-06-29T06:36:33.703Z,79.72
2023-06-29T06:39:01.781Z,79.54
2023-06-29T06:41:29.367Z,79.16
2023-06-29T06:43:58.132Z,79.69
2023-06-29T06:46:25.928Z,78.94
2023-06-29T06:48:53.465Z,79.12
2023-06-29T06:51:21.555Z,78.57
2023-06-29T06:53:48.985Z,78.06
2023-06-29T06:56:16.663Z,77.94
2023-06-29T06:58:43.997Z,79.19
2023-06-29T07:01:12.683Z,79.30
2023-06-29T07:03:40.664Z,78.64
2023-06-29T07:06:07.832Z,78.46
2023-06-29T07:08:36.835Z,77.75
2023-06-29T07:11:04.337Z,77.46
2023-06-29T07:13:32.663Z,78.04
2023-06-29T07:16:00.085Z,78.07
2023-06-29T07:18:27.384Z,78.21
2023-06-29T07:25:55.623Z,76.92
2023-06-29T07:28:23.831Z,76.38
2023-06-29T07:30:52.618Z,75.66
2023-06-29T07:33:19.966Z,74.65
2023-06-29T07:35:47.518Z,74.50
2023-06-29T07:38:15.213Z,75.43
2023-06-29T07:40:43.572Z,75.50
2023-06-29T07:43:10.798Z,74.90
2023-06-29T07:45:38.463Z,75.17
2023-06-29T07:48:06.453Z,74.35
2023-06-29T07:50:33.835Z,74.08
2023-06-29T07:53:01.020Z,73.59
2023-06-29T07:55:28.260Z,73.57
2023-06-29T08:00:26.288Z,72.38
2023-06-29T08:02:56.234Z,73.06
2023-06-29T08:07:55.295Z,72.19
2023-06-29T08:10:23.411Z,72.34
2023-06-29T08:12:51.185Z,73.22
2023-06-29T08:15:18.508Z,73.56
2023-06-29T08:17:45.750Z,73.10
2023-06-29T08:20:14.170Z,72.88
2023-06-29T08:22:44.406Z,71.65
2023-06-29T08:25:11.587Z,70.74
2023-06-29T08:27:40.688Z,70.57
2023-06-29T08:30:10.029Z,71.07
2023-06-29T08:32:37.915Z,70.90
2023-06-29T08:35:06.148Z,71.34
2023-06-29T08:37:33.883Z,71.42
2023-06-29T08:40:01.989Z,70.17
2023-06-29T08:42:29.835Z,69.81
2023-06-29T08:44:57.112Z,68.48
2023-06-29T08:47:25.719Z,68.69
2023-06-29T08:49:55.890Z,68.89
2023-06-29T08:52:26.595Z,68.48
2023-06-29T08:54:53.973Z,68.29
2023-06-29T08:57:21.592Z,68.58
2023-06-29T08:59:52.122Z,68.47
2023-06-29T09:02:19.708Z,69.11
2023-06-29T09:04:47.521Z,69.14
2023-06-29T09:07:15.883Z,69.38
2023-06-29T09:09:44.480Z,68.15
2023-06-29T09:12:12.265Z,66.96
2023-06-29T09:14:44.968Z,66.88
2023-06-29T09:17:19.025Z,67.74
2023-06-29T09:19:55.967Z,66.89
2023-06-29T09:22:23.240Z,66.53
2023-06-29T09:25:01.895Z,67.38
2023-06-29T09:27:30.757Z,66.97
2023-06-29T09:29:58.741Z,66.70
2023-06-29T09:32:26.332Z,66.87
2023-06-29T09:34:53.852Z,66.68
2023-06-29T09:37:21.355Z,66.92
2023-06-29T09:40:12.752Z,66.97
2023-06-29T09:42:40.357Z,66.37
2023-06-29T09:45:15.702Z,66.77
2023-06-29T09:50:24.341Z,66.45
2023-06-29T09:52:55.031Z,66.31
2023-06-29T09:55:30.870Z,67.34
2023-06-29T09:57:58.640Z,67.53
2023-06-29T10:00:25.783Z,67.53
2023-06-29T10:02:54.523Z,65.78
2023-06-29T10:05:22.366Z,65.41
2023-06-29T10:07:51.542Z,64.81
2023-06-29T10:10:19.401Z,64.43
2023-06-29T10:12:48.560Z,63.52
2023-06-29T10:15:16.066Z,63.52
2023-06-29T10:17:47.884Z,62.76
2023-06-29T10:20:15.312Z,63.07
2023-06-29T10:22:43.279Z,64.54
2023-06-29T10:25:13.961Z,63.23
2023-06-29T10:27:41.763Z,62.39
2023-06-29T10:30:09.918Z,62.88
2023-06-29T10:32:38.887Z,61.71
2023-06-29T10:35:13.329Z,60.89
2023-06-29T10:37:46.036Z,60.49
2023-06-29T10:40:17.465Z,60.27
2023-06-29T10:42:44.693Z,59.86
2023-06-29T10:45:21.760Z,61.76
2023-06-29T10:47:58.631Z,61.52
2023-06-29T10:50:37.015Z,59.74
2023-06-29T10:53:06.641Z,59.57
2023-06-29T10:55:40.893Z,60.43
2023-06-29T10:58:15.002Z,61.09
2023-06-29T11:00:42.859Z,59.45
2023-06-29T11:03:11.230Z,58.01
2023-06-29T11:05:38.988Z,58.00
2023-06-29T11:08:09.837Z,58.73
2023-06-29T11:10:37.954Z,59.51
2023-06-29T11:13:10.712Z,59.83
2023-06-29T11:15:38.621Z,60.48
2023-06-29T11:18:07.521Z,61.38
2023-06-29T11:20:38.302Z,58.14
2023-06-29T11:23:05.923Z,57.31
2023-06-29T11:25:33.964Z,58.78
2023-06-29T11:28:01.354Z,57.01
2023-06-29T11:30:28.819Z,56.52
2023-06-29T11:32:56.356Z,57.19
2023-06-29T11:35:23.859Z,57.04
2023-06-29T11:37:52.724Z,57.03
2023-06-29T11:40:25.068Z,55.66
2023-06-29T11:42:53.203Z,55.30
2023-06-29T11:45:22.219Z,55.10
2023-06-29T11:47:56.529Z,53.72
2023-06-29T11:50:27.269Z,54.01
2023-06-29T11:52:55.146Z,55.20
2023-06-29T11:55:24.067Z,56.06
2023-06-29T11:57:52.788Z,55.22
2023-06-29T12:00:20.457Z,54.14
2023-06-29T12:02:51.286Z,53.38
2023-06-29T12:05:18.759Z,53.06
2023-06-29T12:07:47.228Z,54.71
2023-06-29T12:10:21.211Z,53.42
2023-06-29T12:13:00.420Z,54.51
2023-06-29T12:15:29.206Z,55.15
2023-06-29T12:18:12.266Z,53.97
2023-06-29T12:20:41.906Z,52.50
2023-06-29T12:23:10.330Z,51.58
2023-06-29T12:25:46.156Z,52.13
2023-06-29T12:28:14.129Z,52.05
2023-06-29T12:30:41.706Z,51.36
2023-06-29T12:33:10.204Z,49.74
2023-06-29T12:35:38.336Z,50.84
2023-06-29T12:38:05.871Z,49.36
2023-06-29T12:40:34.828Z,48.74
2023-06-29T12:43:02.370Z,48.12
2023-06-29T12:45:30.004Z,48.20
2023-06-29T12:47:58.768Z,47.35
2023-06-29T12:50:26.087Z,47.86
2023-06-29T12:52:53.678Z,48.13
2023-06-29T12:55:21.558Z,47.50
2023-06-29T12:57:49.224Z,46.58
2023-06-29T13:00:19.853Z,46.60
2023-06-29T13:02:48.698Z,47.35
2023-06-29T13:05:16.223Z,48.18
2023-06-29T13:07:44.718Z,46.91
2023-06-29T13:10:15.103Z,46.85
2023-06-29T13:12:43.803Z,46.81
2023-06-29T13:15:12.115Z,47.58
2023-06-29T13:17:40.126Z,48.78
2023-06-29T13:20:09.536Z,47.48
2023-06-29T13:22:37.278Z,47.19
2023-06-29T13:25:05.375Z,47.50
2023-06-29T13:27:34.864Z,49.35
2023-06-29T13:30:03.097Z,50.48
2023-06-29T13:32:30.434Z,49.64
2023-06-29T13:34:59.116Z,49.61
2023-06-29T13:37:26.897Z,49.62
2023-06-29T13:39:55.193Z,50.44
2023-06-29T13:42:23.422Z,48.85
2023-06-29T13:44:50.734Z,48.01
2023-06-29T13:47:20.536Z,48.30
2023-06-29T13:49:47.991Z,49.78
2023-06-29T13:52:15.554Z,50.82
2023-06-29T13:54:43.865Z,51.42
2023-06-29T13:57:11.652Z,51.91
2023-06-29T13:59:39.213Z,52.03
2023-06-29T14:02:06.669Z,51.97
2023-06-29T14:04:34.286Z,52.47
2023-06-29T14:07:01.826Z,53.07
2023-06-29T14:09:31.342Z,53.13
2023-06-29T14:11:59.263Z,53.83
2023-06-29T14:14:26.791Z,53.77
2023-06-29T14:16:54.134Z,53.09
2023-06-29T14:19:21.868Z,52.98
2023-06-29T14:21:49.325Z,54.44
2023-06-29T14:24:17.283Z,53.83
2023-06-29T14:26:44.929Z,54.11
2023-06-29T14:29:12.423Z,54.41
2023-06-29T14:31:47.419Z,54.51
2023-06-29T14:34:21.561Z,53.49
2023-06-29T14:36:49.028Z,53.33
2023-06-29T14:39:16.588Z,53.87
2023-06-29T14:41:59.321Z,54.28
2023-06-29T14:44:27.999Z,56.10
2023-06-29T14:46:56.579Z,56.15
2023-06-29T14:49:24.366Z,56.71
2023-06-29T14:51:52.226Z,58.29
2023-06-29T14:54:20.337Z,59.01
2023-06-29T14:56:47.805Z,58.96
2023-06-29T14:59:19.737Z,59.17
2023-06-29T15:01:47.028Z,60.56
2023-06-29T15:04:14.439Z,60.75
2023-06-29T15:06:43.641Z,59.57
2023-06-29T15:09:11.043Z,60.30
2023-06-29T15:11:38.317Z,60.45
2023-06-29T15:14:05.898Z,58.91
2023-06-29T15:16:33.294Z,59.16
2023-06-29T15:19:00.900Z,59.52
2023-06-29T15:21:28.485Z,58.45
2023-06-29T15:23:56.517Z,58.85
2023-06-29T15:26:27.535Z,59.14
2023-06-29T15:28:54.759Z,59.26
2023-06-29T15:31:22.090Z,57.66
2023-06-29T15:33:49.909Z,57.66
2023-06-29T15:36:17.354Z,58.48
2023-06-29T15:38:44.605Z,58.58
2023-06-29T15:41:11.910Z,58.21
2023-06-29T15:43:40.175Z,58.64
2023-06-29T15:46:07.469Z,58.87
2023-06-29T15:48:36.060Z,58.84
2023-06-29T15:51:04.114Z,59.19
2023-06-29T15:53:32.597Z,59.42
2023-06-29T15:56:00.142Z,59.87
2023-06-29T15:58:28.546Z,60.00
2023-06-29T16:00:56.069Z,60.71
2023-06-29T16:03:23.325Z,60.39
2023-06-29T16:05:50.846Z,60.23
2023-06-29T16:08:18.190Z,60.25
2023-06-29T16:10:45.868Z,60.90
2023-06-29T16:13:13.580Z,61.17
2023-06-29T16:15:40.864Z,61.06
2023-06-29T16:18:08.016Z,60.79
2023-06-29T16:20:37.101Z,60.57
2023-06-29T16:23:06.941Z,61.65
2023-06-29T16:25:35.193Z,61.61
2023-06-29T16:28:02.481Z,61.19
2023-06-29T16:30:36.198Z,60.76
2023-06-29T16:33:04.204Z,60.70
2023-06-29T16:35:31.741Z,60.68
2023-06-29T16:37:58.876Z,61.19
2023-06-29T16:40:26.777Z,61.18
2023-06-29T16:42:53.958Z,60.62
2023-06-29T16:45:21.229Z,61.12
2023-06-29T16:47:49.945Z,61.27
2023-06-29T16:50:17.729Z,61.22
2023-06-29T16:52:44.916Z,61.31
2023-06-29T16:55:12.173Z,61.02
2023-06-29T16:57:40.529Z,61.09
2023-06-29T17:00:09.229Z,61.49
2023-06-29T17:02:37.488Z,61.28
2023-06-29T17:05:05.014Z,61.27
2023-06-29T17:07:33.039Z,61.56
2023-06-29T17:10:00.723Z,61.76
2023-06-29T17:12:28.695Z,61.85
2023-06-29T17:14:56.163Z,62.81
2023-06-29T17:17:23.809Z,62.60
2023-06-29T17:19:52.363Z,62.95
2023-06-29T17:22:19.798Z,62.81
2023-06-29T17:24:46.999Z,62.95
2023-06-29T17:27:14.389Z,63.18
2023-06-29T17:29:41.775Z,63.45
2023-06-29T17:32:09.661Z,63.87
2023-06-29T17:34:38.425Z,64.20
2023-06-29T17:37:06.097Z,64.61
2023-06-29T17:39:33.370Z,64.75
2023-06-29T17:42:00.844Z,64.92
2023-06-29T17:44:28.316Z,65.24
2023-06-29T17:46:55.595Z,65.28
2023-06-29T17:49:27.961Z,65.26
2023-06-29T17:51:55.275Z,65.33
2023-06-29T17:54:22.534Z,65.33
2023-06-29T17:56:49.840Z,65.64
2023-06-29T17:59:17.014Z,65.76
2023-06-29T18:01:44.680Z,65.80
2023-06-29T18:04:12.432Z,65.95
2023-06-29T18:06:40.375Z,66.06
2023-06-29T18:09:08.115Z,65.99
2023-06-29T18:11:35.687Z,66.34
2023-06-29T18:14:03.311Z,66.80
2023-06-29T18:16:32.665Z,66.72
2023-06-29T18:19:00.268Z,66.46
2023-06-29T18:21:28.755Z,66.58
2023-06-29T18:23:56.061Z,66.71
2023-06-29T18:26:23.872Z,66.77
2023-06-29T18:28:52.071Z,66.88
2023-06-29T18:31:19.607Z,67.02
2023-06-29T18:33:47.838Z,67.04
2023-06-29T18:36:15.120Z,67.52
2023-06-29T18:38:43.235Z,67.71
2023-06-29T18:41:28.974Z,67.95
2023-06-29T18:44:01.084Z,68.05
2023-06-29T18:46:28.669Z,68.09
2023-06-29T18:48:55.946Z,68.31
2023-06-29T18:51:23.719Z,68.29
2023-06-29T18:53:51.985Z,68.10
2023-06-29T18:56:20.132Z,68.05
2023-06-29T18:58:48.084Z,67.96
2023-06-29T19:01:15.447Z,68.25
2023-06-29T19:03:43.577Z,68.18
2023-06-29T19:06:11.311Z,67.80
2023-06-29T19:08:38.777Z,67.81
2023-06-29T19:11:07.071Z,67.74
2023-06-29T19:13:35.005Z,67.69
2023-06-29T19:16:03.991Z,68.26
2023-06-29T19:18:31.975Z,68.55
2023-06-29T19:20:59.248Z,68.20
2023-06-29T19:23:27.384Z,68.30
2023-06-29T19:25:54.948Z,68.40
2023-06-29T19:28:22.530Z,68.27
2023-06-29T19:30:49.865Z,68.36
2023-06-29T19:33:17.196Z,68.51
2023-06-29T19:35:44.860Z,68.65
2023-06-29T19:38:12.542Z,68.91
2023-06-29T19:40:39.650Z,69.37
2023-06-29T19:43:07.553Z,69.29
2023-06-29T19:45:35.088Z,69.60
2023-06-29T19:48:02.707Z,69.60
2023-06-29T19:50:30.303Z,69.69
2023-06-29T19:52:57.685Z,69.70
2023-06-29T19:55:25.543Z,69.60
2023-06-29T19:57:53.110Z,69.52
2023-06-29T20:00:20.851Z,69.86
2023-06-29T20:02:54.061Z,70.20
2023-06-29T20:05:21.474Z,70.26
2023-06-29T20:07:48.747Z,70.49
2023-06-29T20:10:16.365Z,70.31
2023-06-29T20:12:45.405Z,70.49
2023-06-29T20:15:12.629Z,70.71
2023-06-29T20:17:40.292Z,71.18
2023-06-29T20:20:08.129Z,71.16
2023-06-29T20:22:35.329Z,71.23
2023-06-29T20:25:02.976Z,71.27
2023-06-29T20:27:30.282Z,71.18
2023-06-29T20:29:57.530Z,71.08
2023-06-29T20:32:24.843Z,70.77
2023-06-29T20:34:51.972Z,71.11
2023-06-29T20:37:19.377Z,70.93
2023-06-29T20:39:46.817Z,70.98
2023-06-29T20:42:14.849Z,70.90
2023-06-29T20:44:42.667Z,71.02
2023-06-29T20:47:09.915Z,70.97
2023-06-29T20:49:37.499Z,71.01
2023-06-29T20:52:05.465Z,70.76
2023-06-29T20:54:33.345Z,70.96
2023-06-29T20:57:01.034Z,71.26
2023-06-29T20:59:28.654Z,71.24
2023-06-29T21:01:57.211Z,71.86
2023-06-29T21:04:24.936Z,71.67
2023-06-29T21:06:52.316Z,72.04
2023-06-29T21:09:20.161Z,71.75
2023-06-29T21:11:47.526Z,71.59
2023-06-29T21:14:14.980Z,71.89
2023-06-29T21:16:42.309Z,72.10
2023-06-29T21:19:09.816Z,71.91
2023-06-29T21:21:37.315Z,72.14
2023-06-29T21:24:04.707Z,72.03
2023-06-29T21:26:32.631Z,72.08
2023-06-29T21:29:02.148Z,72.14
2023-06-29T21:31:32.568Z,72.34
2023-06-29T21:34:00.399Z,72.13
2023-06-29T21:36:28.391Z,72.40
2023-06-29T21:38:55.930Z,72.46
2023-06-29T21:41:23.948Z,72.50
2023-06-29T21:43:51.262Z,72.50
2023-06-29T21:46:18.478Z,72.58
2023-06-29T21:48:45.707Z,72.82
2023-06-29T21:51:13.044Z,73.16
2023-06-29T21:53:41.041Z,73.56
2023-06-29T21:56:21.273Z,73.47
2023-06-29T21:58:53.019Z,73.47
2023-06-29T22:01:21.874Z,73.72
2023-06-29T22:03:49.096Z,73.80
2023-06-29T22:06:16.489Z,74.03
2023-06-29T22:08:43.805Z,74.19
2023-06-29T22:11:11.136Z,74.65
2023-06-29T22:13:39.201Z,74.93
2023-06-29T22:16:07.816Z,75.05
2023-06-29T22:18:35.486Z,75.33
2023-06-29T22:21:04.818Z,75.44
2023-06-29T22:23:32.261Z,75.56
2023-06-29T22:25:59.802Z,75.68
2023-06-29T22:28:27.344Z,75.68
2023-06-29T22:30:54.844Z,75.86
2023-06-29T22:33:21.941Z,76.06
2023-06-29T22:35:49.544Z,76.07
2023-06-29T22:38:18.326Z,76.23
2023-06-29T22:40:45.630Z,76.34
2023-06-29T22:43:13.422Z,76.38
2023-06-29T22:45:41.405Z,76.45
2023-06-29T22:48:08.620Z,76.58
2023-06-29T22:50:39.115Z,77.02
2023-06-29T22:53:07.923Z,77.15
2023-06-29T22:55:35.302Z,77.23
2023-06-29T22:58:02.708Z,77.34
2023-06-29T23:00:30.407Z,77.40
2023-06-29T23:02:57.959Z,77.58
2023-06-29T23:05:25.342Z,77.87
2023-06-29T23:07:53.098Z,77.92
2023-06-29T23:10:21.017Z,77.92
2023-06-29T23:12:48.421Z,78.03
2023-06-29T23:15:16.472Z,78.41
2023-06-29T23:17:44.477Z,78.59
2023-06-29T23:20:14.513Z,78.45
2023-06-29T23:22:42.463Z,78.96
2023-06-29T23:25:10.402Z,79.19
2023-06-29T23:27:42.563Z,79.10
2023-06-29T23:30:12.820Z,79.15
2023-06-29T23:32:41.344Z,79.18
2023-06-29T23:35:09.831Z,79.46
2023-06-29T23:37:37.574Z,79.55
2023-06-29T23:40:10.370Z,79.59
2023-06-29T23:42:38.937Z,79.75
2023-06-29T23:45:10.922Z,79.66
2023-06-29T23:47:39.661Z,79.78
2023-06-29T23:50:14.380Z,79.68
2023-06-29T23:52:43.442Z,79.98
2023-06-29T23:55:12.850Z,80.12
2023-06-29T23:57:40.719Z,80.28
